Terminal Aerodrome Forecast
Issued by NWS Wilmington, OH

Current Version | Previous Version | Text Only | Print | Product List | Glossary Off
Versions: 1 2 3 4 5 6 7 8 9 10 11 12 13 14 15 16 17 18 19 20 21 22 23 24 25 26

000
FTUS41 KILN 010150 AAA
TAFCMH
TAF AMD
KCMH 010150Z 0102/0124 28008KT P6SM VCSH SCT060 BKN090
      TEMPO 0102/0103 30015KT 4SM -SHRA BR BKN060
     FM010300 26005KT P6SM FEW080
     FM011700 30008G20KT P6SM SCT060
     FM012300 28006KT P6SM SCT250=

USA.gov is the U.S. government's official web portal to all federal, state and local government web resources and services.